sensor_id;sensor_type;location;lat;lon;timestamp;temperature;humidity
8892;DHT22;4482;54.332;10.118;2022-08-19T00:00:51;19.10;99.90
8892;DHT22;4482;54.332;10.118;2022-08-19T00:03:18;19.10;99.90
8892;DHT22;4482;54.332;10.118;2022-08-19T00:05:45;19.10;99.90
8892;DHT22;4482;54.332;10.118;2022-08-19T00:08:12;19.00;99.90
8892;DHT22;4482;54.332;10.118;2022-08-19T00:10:39;19.10;99.90
8892;DHT22;4482;54.332;10.118;2022-08-19T00:13:05;19.10;99.90
8892;DHT22;4482;54.332;10.118;2022-08-19T00:15:34;19.10;99.90
8892;DHT22;4482;54.332;10.118;2022-08-19T00:18:00;19.10;99.90
8892;DHT22;4482;54.332;10.118;2022-08-19T00:20:27;19.10;99.90
8892;DHT22;4482;54.332;10.118;2022-08-19T00:22:54;19.10;99.90
8892;DHT22;4482;54.332;10.118;2022-08-19T00:25:21;19.10;99.90
8892;DHT22;4482;54.332;10.118;2022-08-19T00:27:48;19.10;99.90
8892;DHT22;4482;54.332;10.118;2022-08-19T00:30:15;19.20;99.90
8892;DHT22;4482;54.332;10.118;2022-08-19T00:32:44;19.10;99.90
8892;DHT22;4482;54.332;10.118;2022-08-19T00:35:10;19.20;99.90
8892;DHT22;4482;54.332;10.118;2022-08-19T00:37:38;19.10;99.90
8892;DHT22;4482;54.332;10.118;2022-08-19T00:40:10;19.20;99.90
8892;DHT22;4482;54.332;10.118;2022-08-19T00:42:37;19.20;99.90
8892;DHT22;4482;54.332;10.118;2022-08-19T00:45:10;19.20;99.90
8892;DHT22;4482;54.332;10.118;2022-08-19T00:47:37;19.20;99.90
8892;DHT22;4482;54.332;10.118;2022-08-19T00:50:06;19.20;99.90
8892;DHT22;4482;54.332;10.118;2022-08-19T00:52:38;19.20;99.90
8892;DHT22;4482;54.332;10.118;2022-08-19T00:55:07;19.20;99.90
8892;DHT22;4482;54.332;10.118;2022-08-19T00:57:38;19.20;99.90
8892;DHT22;4482;54.332;10.118;2022-08-19T01:00:09;19.20;99.90
8892;DHT22;4482;54.332;10.118;2022-08-19T01:02:39;19.10;99.90
8892;DHT22;4482;54.332;10.118;2022-08-19T01:05:25;19.20;99.90
8892;DHT22;4482;54.332;10.118;2022-08-19T01:07:54;19.20;99.90
8892;DHT22;4482;54.332;10.118;2022-08-19T01:10:24;19.20;99.90
8892;DHT22;4482;54.332;10.118;2022-08-19T01:12:52;19.30;99.90
8892;DHT22;4482;54.332;10.118;2022-08-19T01:15:23;19.40;99.90
8892;DHT22;4482;54.332;10.118;2022-08-19T01:17:53;19.40;99.90
8892;DHT22;4482;54.332;10.118;2022-08-19T01:20:23;19.40;99.90
8892;DHT22;4482;54.332;10.118;2022-08-19T01:22:54;19.30;99.90
8892;DHT22;4482;54.332;10.118;2022-08-19T01:25:24;19.30;99.90
8892;DHT22;4482;54.332;10.118;2022-08-19T01:27:53;19.30;99.90
8892;DHT22;4482;54.332;10.118;2022-08-19T01:30:23;19.20;99.90
8892;DHT22;4482;54.332;10.118;2022-08-19T01:32:51;19.20;99.90
8892;DHT22;4482;54.332;10.118;2022-08-19T01:35:20;19.20;99.90
8892;DHT22;4482;54.332;10.118;2022-08-19T01:37:53;19.20;99.90
8892;DHT22;4482;54.332;10.118;2022-08-19T01:40:22;19.20;99.90
8892;DHT22;4482;54.332;10.118;2022-08-19T01:42:50;19.20;99.90
8892;DHT22;4482;54.332;10.118;2022-08-19T01:45:19;19.20;99.90
8892;DHT22;4482;54.332;10.118;2022-08-19T01:47:47;19.20;99.90
8892;DHT22;4482;54.332;10.118;2022-08-19T01:50:14;19.20;99.90
8892;DHT22;4482;54.332;10.118;2022-08-19T01:52:42;19.20;99.90
8892;DHT22;4482;54.332;10.118;2022-08-19T01:55:14;19.20;99.90
8892;DHT22;4482;54.332;10.118;2022-08-19T01:57:44;19.20;99.90
8892;DHT22;4482;54.332;10.118;2022-08-19T02:00:15;19.20;99.90
8892;DHT22;4482;54.332;10.118;2022-08-19T02:02:42;19.10;99.90
8892;DHT22;4482;54.332;10.118;2022-08-19T02:05:10;19.20;99.90
8892;DHT22;4482;54.332;10.118;2022-08-19T02:07:39;19.10;99.90
8892;DHT22;4482;54.332;10.118;2022-08-19T02:10:10;19.10;99.90
8892;DHT22;4482;54.332;10.118;2022-08-19T02:12:38;19.00;99.90
8892;DHT22;4482;54.332;10.118;2022-08-19T02:15:06;19.00;99.90
8892;DHT22;4482;54.332;10.118;2022-08-19T02:17:34;19.10;99.90
8892;DHT22;4482;54.332;10.118;2022-08-19T02:20:01;19.10;99.90
8892;DHT22;4482;54.332;10.118;2022-08-19T02:22:27;19.10;99.90
8892;DHT22;4482;54.332;10.118;2022-08-19T02:24:55;19.00;99.90
8892;DHT22;4482;54.332;10.118;2022-08-19T02:27:22;19.00;99.90
8892;DHT22;4482;54.332;10.118;2022-08-19T02:29:51;19.00;99.90
8892;DHT22;4482;54.332;10.118;2022-08-19T02:32:18;18.90;99.90
8892;DHT22;4482;54.332;10.118;2022-08-19T02:34:46;19.00;99.90
8892;DHT22;4482;54.332;10.118;2022-08-19T02:37:13;18.90;99.90
8892;DHT22;4482;54.332;10.118;2022-08-19T02:39:54;19.00;99.90
8892;DHT22;4482;54.332;10.118;2022-08-19T02:42:20;19.00;99.90
8892;DHT22;4482;54.332;10.118;2022-08-19T02:44:47;18.90;99.90
8892;DHT22;4482;54.332;10.118;2022-08-19T02:47:15;18.90;99.90
8892;DHT22;4482;54.332;10.118;2022-08-19T02:49:44;18.90;99.90
8892;DHT22;4482;54.332;10.118;2022-08-19T02:52:11;18.90;99.90
8892;DHT22;4482;54.332;10.118;2022-08-19T02:54:39;18.90;99.90
8892;DHT22;4482;54.332;10.118;2022-08-19T02:57:06;18.90;99.90
8892;DHT22;4482;54.332;10.118;2022-08-19T02:59:33;18.90;99.90
8892;DHT22;4482;54.332;10.118;2022-08-19T03:02:00;19.00;99.90
8892;DHT22;4482;54.332;10.118;2022-08-19T03:04:28;19.00;99.90
8892;DHT22;4482;54.332;10.118;2022-08-19T03:06:56;19.00;99.90
8892;DHT22;4482;54.332;10.118;2022-08-19T03:09:22;19.10;99.90
8892;DHT22;4482;54.332;10.118;2022-08-19T03:11:49;19.00;99.90
8892;DHT22;4482;54.332;10.118;2022-08-19T03:14:16;19.00;99.90
8892;DHT22;4482;54.332;10.118;2022-08-19T03:16:46;18.90;99.90
8892;DHT22;4482;54.332;10.118;2022-08-19T03:19:16;18.90;99.90
8892;DHT22;4482;54.332;10.118;2022-08-19T03:21:45;18.90;99.90
8892;DHT22;4482;54.332;10.118;2022-08-19T03:24:13;18.80;99.90
8892;DHT22;4482;54.332;10.118;2022-08-19T03:26:42;18.90;99.90
8892;DHT22;4482;54.332;10.118;2022-08-19T03:29:09;19.00;99.90
8892;DHT22;4482;54.332;10.118;2022-08-19T03:31:38;19.00;99.90
8892;DHT22;4482;54.332;10.118;2022-08-19T03:34:06;19.00;99.90
8892;DHT22;4482;54.332;10.118;2022-08-19T03:36:33;19.00;99.90
8892;DHT22;4482;54.332;10.118;2022-08-19T03:39:02;19.00;99.90
8892;DHT22;4482;54.332;10.118;2022-08-19T03:41:31;19.10;99.90
8892;DHT22;4482;54.332;10.118;2022-08-19T03:43:58;19.10;99.90
8892;DHT22;4482;54.332;10.118;2022-08-19T03:46:27;19.10;99.90
8892;DHT22;4482;54.332;10.118;2022-08-19T03:48:57;19.10;99.90
8892;DHT22;4482;54.332;10.118;2022-08-19T03:51:25;19.20;99.90
8892;DHT22;4482;54.332;10.118;2022-08-19T03:53:54;19.10;99.90
8892;DHT22;4482;54.332;10.118;2022-08-19T03:56:22;19.20;99.90
8892;DHT22;4482;54.332;10.118;2022-08-19T03:58:51;19.20;99.90
8892;DHT22;4482;54.332;10.118;2022-08-19T04:01:21;19.10;99.90
8892;DHT22;4482;54.332;10.118;2022-08-19T04:03:48;19.10;99.90
8892;DHT22;4482;54.332;10.118;2022-08-19T04:06:18;19.10;99.90
8892;DHT22;4482;54.332;10.118;2022-08-19T04:08:46;19.10;99.90
8892;DHT22;4482;54.332;10.118;2022-08-19T04:11:15;19.10;99.90
8892;DHT22;4482;54.332;10.118;2022-08-19T04:13:44;19.10;99.90
8892;DHT22;4482;54.332;10.118;2022-08-19T04:16:11;19.20;99.90
8892;DHT22;4482;54.332;10.118;2022-08-19T04:18:39;19.10;99.90
8892;DHT22;4482;54.332;10.118;2022-08-19T04:21:07;19.10;99.90
8892;DHT22;4482;54.332;10.118;2022-08-19T04:23:35;19.10;99.90
8892;DHT22;4482;54.332;10.118;2022-08-19T04:26:02;19.10;99.90
8892;DHT22;4482;54.332;10.118;2022-08-19T04:28:29;19.00;99.90
8892;DHT22;4482;54.332;10.118;2022-08-19T04:30:57;19.00;99.90
8892;DHT22;4482;54.332;10.118;2022-08-19T04:33:25;19.00;99.90
8892;DHT22;4482;54.332;10.118;2022-08-19T04:35:54;19.10;99.90
8892;DHT22;4482;54.332;10.118;2022-08-19T04:38:22;19.10;99.90
8892;DHT22;4482;54.332;10.118;2022-08-19T04:40:50;19.10;99.90
8892;DHT22;4482;54.332;10.118;2022-08-19T04:43:36;19.20;99.90
8892;DHT22;4482;54.332;10.118;2022-08-19T04:46:06;19.20;99.90
8892;DHT22;4482;54.332;10.118;2022-08-19T04:48:34;19.20;99.90
8892;DHT22;4482;54.332;10.118;2022-08-19T04:51:01;19.20;99.90
8892;DHT22;4482;54.332;10.118;2022-08-19T04:53:36;19.20;99.90
8892;DHT22;4482;54.332;10.118;2022-08-19T04:56:06;19.20;99.90
8892;DHT22;4482;54.332;10.118;2022-08-19T04:58:34;19.30;99.90
8892;DHT22;4482;54.332;10.118;2022-08-19T05:01:01;19.20;99.90
8892;DHT22;4482;54.332;10.118;2022-08-19T05:03:29;19.30;99.90
8892;DHT22;4482;54.332;10.118;2022-08-19T05:06:03;19.30;99.90
8892;DHT22;4482;54.332;10.118;2022-08-19T05:08:31;19.30;99.90
8892;DHT22;4482;54.332;10.118;2022-08-19T05:10:57;19.30;99.90
8892;DHT22;4482;54.332;10.118;2022-08-19T05:13:25;19.30;99.90
8892;DHT22;4482;54.332;10.118;2022-08-19T05:15:54;19.30;99.90
8892;DHT22;4482;54.332;10.118;2022-08-19T05:18:21;19.30;99.90
8892;DHT22;4482;54.332;10.118;2022-08-19T05:21:09;19.30;99.90
8892;DHT22;4482;54.332;10.118;2022-08-19T05:23:54;19.30;99.90
8892;DHT22;4482;54.332;10.118;2022-08-19T05:26:20;19.30;99.90
8892;DHT22;4482;54.332;10.118;2022-08-19T05:28:47;19.40;99.90
8892;DHT22;4482;54.332;10.118;2022-08-19T05:31:14;19.30;99.90
8892;DHT22;4482;54.332;10.118;2022-08-19T05:33:41;19.30;99.90
8892;DHT22;4482;54.332;10.118;2022-08-19T05:36:09;19.20;99.90
8892;DHT22;4482;54.332;10.118;2022-08-19T05:38:36;19.30;99.90
8892;DHT22;4482;54.332;10.118;2022-08-19T05:41:07;19.30;99.90
8892;DHT22;4482;54.332;10.118;2022-08-19T05:43:34;19.20;99.90
8892;DHT22;4482;54.332;10.118;2022-08-19T05:46:00;19.10;99.90
8892;DHT22;4482;54.332;10.118;2022-08-19T05:48:27;19.20;99.90
8892;DHT22;4482;54.332;10.118;2022-08-19T05:50:55;19.20;99.90
8892;DHT22;4482;54.332;10.118;2022-08-19T05:53:25;19.20;99.90
8892;DHT22;4482;54.332;10.118;2022-08-19T05:55:52;19.20;99.90
8892;DHT22;4482;54.332;10.118;2022-08-19T05:58:19;19.20;99.90
8892;DHT22;4482;54.332;10.118;2022-08-19T06:00:45;19.20;99.90
8892;DHT22;4482;54.332;10.118;2022-08-19T06:03:12;19.20;99.90
8892;DHT22;4482;54.332;10.118;2022-08-19T06:05:40;19.30;99.90
8892;DHT22;4482;54.332;10.118;2022-08-19T06:08:07;19.20;99.90
8892;DHT22;4482;54.332;10.118;2022-08-19T06:10:35;19.20;99.90
8892;DHT22;4482;54.332;10.118;2022-08-19T06:13:02;19.10;99.90
8892;DHT22;4482;54.332;10.118;2022-08-19T06:15:29;19.10;99.90
8892;DHT22;4482;54.332;10.118;2022-08-19T06:17:56;19.10;99.90
8892;DHT22;4482;54.332;10.118;2022-08-19T06:20:23;19.10;99.90
8892;DHT22;4482;54.332;10.118;2022-08-19T06:22:50;19.10;99.90
8892;DHT22;4482;54.332;10.118;2022-08-19T06:25:17;19.10;99.90
8892;DHT22;4482;54.332;10.118;2022-08-19T06:27:46;19.10;99.90
8892;DHT22;4482;54.332;10.118;2022-08-19T06:30:13;19.10;99.90
8892;DHT22;4482;54.332;10.118;2022-08-19T06:32:40;19.10;99.90
8892;DHT22;4482;54.332;10.118;2022-08-19T06:35:07;19.10;99.90
8892;DHT22;4482;54.332;10.118;2022-08-19T06:37:35;19.10;99.90
8892;DHT22;4482;54.332;10.118;2022-08-19T06:40:03;19.10;99.90
8892;DHT22;4482;54.332;10.118;2022-08-19T06:42:30;19.00;99.90
8892;DHT22;4482;54.332;10.118;2022-08-19T06:44:58;19.10;99.90
8892;DHT22;4482;54.332;10.118;2022-08-19T06:47:27;19.10;99.90
8892;DHT22;4482;54.332;10.118;2022-08-19T06:49:54;19.20;99.90
8892;DHT22;4482;54.332;10.118;2022-08-19T06:52:24;19.20;99.90
8892;DHT22;4482;54.332;10.118;2022-08-19T06:54:51;19.30;99.90
8892;DHT22;4482;54.332;10.118;2022-08-19T06:57:18;19.40;99.90
8892;DHT22;4482;54.332;10.118;2022-08-19T06:59:44;19.40;99.90
8892;DHT22;4482;54.332;10.118;2022-08-19T07:02:13;19.50;99.90
8892;DHT22;4482;54.332;10.118;2022-08-19T07:04:39;19.60;99.90
8892;DHT22;4482;54.332;10.118;2022-08-19T07:07:08;19.60;99.90
8892;DHT22;4482;54.332;10.118;2022-08-19T07:09:36;19.70;99.90
8892;DHT22;4482;54.332;10.118;2022-08-19T07:12:05;19.80;99.90
8892;DHT22;4482;54.332;10.118;2022-08-19T07:14:33;19.90;99.90
8892;DHT22;4482;54.332;10.118;2022-08-19T07:17:04;20.00;99.90
8892;DHT22;4482;54.332;10.118;2022-08-19T07:19:35;20.10;99.90
8892;DHT22;4482;54.332;10.118;2022-08-19T07:22:06;20.20;99.90
8892;DHT22;4482;54.332;10.118;2022-08-19T07:24:34;20.20;99.90
8892;DHT22;4482;54.332;10.118;2022-08-19T07:27:05;20.30;99.90
8892;DHT22;4482;54.332;10.118;2022-08-19T07:29:34;20.30;99.90
8892;DHT22;4482;54.332;10.118;2022-08-19T07:32:02;20.30;99.90
8892;DHT22;4482;54.332;10.118;2022-08-19T07:34:31;20.30;99.90
8892;DHT22;4482;54.332;10.118;2022-08-19T07:37:01;20.20;99.90
8892;DHT22;4482;54.332;10.118;2022-08-19T07:39:31;20.20;99.90
8892;DHT22;4482;54.332;10.118;2022-08-19T07:41:59;20.10;99.90
8892;DHT22;4482;54.332;10.118;2022-08-19T07:44:27;20.10;99.90
8892;DHT22;4482;54.332;10.118;2022-08-19T07:46:56;19.90;99.90
8892;DHT22;4482;54.332;10.118;2022-08-19T07:49:23;20.00;99.90
8892;DHT22;4482;54.332;10.118;2022-08-19T07:51:52;19.80;99.90
8892;DHT22;4482;54.332;10.118;2022-08-19T07:54:22;19.80;99.90
8892;DHT22;4482;54.332;10.118;2022-08-19T07:56:49;19.70;99.90
8892;DHT22;4482;54.332;10.118;2022-08-19T07:59:16;19.60;99.90
8892;DHT22;4482;54.332;10.118;2022-08-19T08:01:44;19.70;99.90
8892;DHT22;4482;54.332;10.118;2022-08-19T08:04:12;19.70;99.90
8892;DHT22;4482;54.332;10.118;2022-08-19T08:06:56;19.80;99.90
8892;DHT22;4482;54.332;10.118;2022-08-19T08:09:41;19.80;99.90
8892;DHT22;4482;54.332;10.118;2022-08-19T08:12:10;19.80;99.90
8892;DHT22;4482;54.332;10.118;2022-08-19T08:14:40;19.80;99.90
8892;DHT22;4482;54.332;10.118;2022-08-19T08:17:08;19.80;99.90
8892;DHT22;4482;54.332;10.118;2022-08-19T08:19:36;19.80;99.90
8892;DHT22;4482;54.332;10.118;2022-08-19T08:22:03;19.70;99.90
8892;DHT22;4482;54.332;10.118;2022-08-19T08:24:32;19.70;99.90
8892;DHT22;4482;54.332;10.118;2022-08-19T08:27:02;19.70;99.90
8892;DHT22;4482;54.332;10.118;2022-08-19T08:29:30;19.70;99.90
8892;DHT22;4482;54.332;10.118;2022-08-19T08:31:58;19.60;99.90
8892;DHT22;4482;54.332;10.118;2022-08-19T08:34:25;19.70;99.90
8892;DHT22;4482;54.332;10.118;2022-08-19T08:36:52;19.60;99.90
8892;DHT22;4482;54.332;10.118;2022-08-19T08:39:20;19.70;99.90
8892;DHT22;4482;54.332;10.118;2022-08-19T08:41:53;19.60;99.90
8892;DHT22;4482;54.332;10.118;2022-08-19T08:44:27;19.60;99.90
8892;DHT22;4482;54.332;10.118;2022-08-19T08:47:01;19.70;99.90
8892;DHT22;4482;54.332;10.118;2022-08-19T08:49:33;19.80;99.90
8892;DHT22;4482;54.332;10.118;2022-08-19T08:52:04;19.80;99.90
8892;DHT22;4482;54.332;10.118;2022-08-19T08:54:36;20.00;99.90
8892;DHT22;4482;54.332;10.118;2022-08-19T08:57:09;20.10;99.90
8892;DHT22;4482;54.332;10.118;2022-08-19T08:59:40;20.40;99.90
8892;DHT22;4482;54.332;10.118;2022-08-19T09:02:08;20.50;99.90
8892;DHT22;4482;54.332;10.118;2022-08-19T09:04:35;20.50;99.90
8892;DHT22;4482;54.332;10.118;2022-08-19T09:07:17;20.50;99.90
8892;DHT22;4482;54.332;10.118;2022-08-19T09:09:50;20.50;99.90
8892;DHT22;4482;54.332;10.118;2022-08-19T09:12:24;20.40;99.90
8892;DHT22;4482;54.332;10.118;2022-08-19T09:14:57;20.30;99.90
8892;DHT22;4482;54.332;10.118;2022-08-19T09:17:29;20.30;99.90
8892;DHT22;4482;54.332;10.118;2022-08-19T09:20:00;20.20;99.90
8892;DHT22;4482;54.332;10.118;2022-08-19T09:22:30;20.20;99.90
8892;DHT22;4482;54.332;10.118;2022-08-19T09:24:57;20.20;99.90
8892;DHT22;4482;54.332;10.118;2022-08-19T09:27:25;20.20;99.90
8892;DHT22;4482;54.332;10.118;2022-08-19T09:29:54;20.20;99.90
8892;DHT22;4482;54.332;10.118;2022-08-19T09:32:22;20.10;99.90
8892;DHT22;4482;54.332;10.118;2022-08-19T09:34:49;20.00;99.90
8892;DHT22;4482;54.332;10.118;2022-08-19T09:37:18;19.90;99.90
8892;DHT22;4482;54.332;10.118;2022-08-19T09:39:45;19.90;99.90
8892;DHT22;4482;54.332;10.118;2022-08-19T09:42:12;19.80;99.90
8892;DHT22;4482;54.332;10.118;2022-08-19T09:44:40;19.80;99.90
8892;DHT22;4482;54.332;10.118;2022-08-19T09:47:09;19.80;99.90
8892;DHT22;4482;54.332;10.118;2022-08-19T09:49:37;19.70;99.90
8892;DHT22;4482;54.332;10.118;2022-08-19T09:52:05;19.70;99.90
8892;DHT22;4482;54.332;10.118;2022-08-19T09:54:33;19.70;99.90
8892;DHT22;4482;54.332;10.118;2022-08-19T09:57:00;19.70;99.90
8892;DHT22;4482;54.332;10.118;2022-08-19T09:59:27;19.80;99.90
8892;DHT22;4482;54.332;10.118;2022-08-19T10:01:54;19.80;99.90
8892;DHT22;4482;54.332;10.118;2022-08-19T10:04:23;19.80;99.90
8892;DHT22;4482;54.332;10.118;2022-08-19T10:07:10;19.90;99.90
8892;DHT22;4482;54.332;10.118;2022-08-19T10:09:37;19.90;99.90
8892;DHT22;4482;54.332;10.118;2022-08-19T10:12:07;19.90;99.90
8892;DHT22;4482;54.332;10.118;2022-08-19T10:14:34;19.90;99.90
8892;DHT22;4482;54.332;10.118;2022-08-19T10:17:01;19.90;99.90
8892;DHT22;4482;54.332;10.118;2022-08-19T10:19:30;20.00;99.90
8892;DHT22;4482;54.332;10.118;2022-08-19T10:22:03;20.00;99.90
8892;DHT22;4482;54.332;10.118;2022-08-19T10:24:30;20.00;99.90
8892;DHT22;4482;54.332;10.118;2022-08-19T10:26:59;20.10;99.90
8892;DHT22;4482;54.332;10.118;2022-08-19T10:29:29;20.10;99.90
8892;DHT22;4482;54.332;10.118;2022-08-19T10:31:57;20.10;99.90
8892;DHT22;4482;54.332;10.118;2022-08-19T10:34:26;20.10;99.90
8892;DHT22;4482;54.332;10.118;2022-08-19T10:36:55;20.20;99.90
8892;DHT22;4482;54.332;10.118;2022-08-19T10:39:22;20.20;99.90
8892;DHT22;4482;54.332;10.118;2022-08-19T10:41:49;20.40;99.90
8892;DHT22;4482;54.332;10.118;2022-08-19T10:44:16;20.50;99.90
8892;DHT22;4482;54.332;10.118;2022-08-19T10:46:44;20.50;99.90
8892;DHT22;4482;54.332;10.118;2022-08-19T10:49:12;20.60;99.90
8892;DHT22;4482;54.332;10.118;2022-08-19T10:51:40;20.70;99.90
8892;DHT22;4482;54.332;10.118;2022-08-19T10:54:26;20.80;99.90
8892;DHT22;4482;54.332;10.118;2022-08-19T10:57:14;20.90;99.90
8892;DHT22;4482;54.332;10.118;2022-08-19T10:59:40;21.10;99.90
8892;DHT22;4482;54.332;10.118;2022-08-19T11:02:09;21.10;99.90
8892;DHT22;4482;54.332;10.118;2022-08-19T11:04:38;21.20;99.90
8892;DHT22;4482;54.332;10.118;2022-08-19T11:07:06;21.30;99.90
8892;DHT22;4482;54.332;10.118;2022-08-19T11:09:38;21.30;99.90
8892;DHT22;4482;54.332;10.118;2022-08-19T11:12:06;21.20;99.90
8892;DHT22;4482;54.332;10.118;2022-08-19T11:14:34;21.30;99.90
8892;DHT22;4482;54.332;10.118;2022-08-19T11:17:02;21.30;99.90
8892;DHT22;4482;54.332;10.118;2022-08-19T11:19:29;21.30;99.90
8892;DHT22;4482;54.332;10.118;2022-08-19T11:21:56;21.20;99.90
8892;DHT22;4482;54.332;10.118;2022-08-19T11:24:25;21.20;99.90
8892;DHT22;4482;54.332;10.118;2022-08-19T11:26:59;21.30;99.90
8892;DHT22;4482;54.332;10.118;2022-08-19T11:29:27;21.30;99.90
8892;DHT22;4482;54.332;10.118;2022-08-19T11:31:55;21.40;99.90
8892;DHT22;4482;54.332;10.118;2022-08-19T11:34:24;21.40;99.90
8892;DHT22;4482;54.332;10.118;2022-08-19T11:36:53;21.60;99.90
8892;DHT22;4482;54.332;10.118;2022-08-19T11:39:25;21.60;99.90
8892;DHT22;4482;54.332;10.118;2022-08-19T11:41:54;21.50;99.90
8892;DHT22;4482;54.332;10.118;2022-08-19T11:44:20;21.50;99.90
8892;DHT22;4482;54.332;10.118;2022-08-19T11:46:47;21.50;99.90
8892;DHT22;4482;54.332;10.118;2022-08-19T11:49:15;21.40;99.90
8892;DHT22;4482;54.332;10.118;2022-08-19T11:51:44;21.30;99.90
8892;DHT22;4482;54.332;10.118;2022-08-19T11:54:12;21.30;99.90
8892;DHT22;4482;54.332;10.118;2022-08-19T11:56:39;21.30;99.90
8892;DHT22;4482;54.332;10.118;2022-08-19T11:59:08;21.20;99.90
8892;DHT22;4482;54.332;10.118;2022-08-19T12:01:36;21.30;99.90
8892;DHT22;4482;54.332;10.118;2022-08-19T12:04:03;21.30;99.90
8892;DHT22;4482;54.332;10.118;2022-08-19T12:06:31;21.30;99.90
8892;DHT22;4482;54.332;10.118;2022-08-19T12:09:02;21.20;99.90
8892;DHT22;4482;54.332;10.118;2022-08-19T12:11:30;21.20;99.90
8892;DHT22;4482;54.332;10.118;2022-08-19T12:13:57;21.20;99.90
8892;DHT22;4482;54.332;10.118;2022-08-19T12:16:27;21.10;99.90
8892;DHT22;4482;54.332;10.118;2022-08-19T12:18:56;21.00;99.90
8892;DHT22;4482;54.332;10.118;2022-08-19T12:21:26;20.90;99.90
8892;DHT22;4482;54.332;10.118;2022-08-19T12:23:55;20.80;99.90
8892;DHT22;4482;54.332;10.118;2022-08-19T12:26:23;20.80;99.90
8892;DHT22;4482;54.332;10.118;2022-08-19T12:28:50;20.70;99.90
8892;DHT22;4482;54.332;10.118;2022-08-19T12:31:17;20.70;99.90
8892;DHT22;4482;54.332;10.118;2022-08-19T12:33:46;20.70;99.90
8892;DHT22;4482;54.332;10.118;2022-08-19T12:36:15;20.70;99.90
8892;DHT22;4482;54.332;10.118;2022-08-19T12:38:43;20.70;99.90
8892;DHT22;4482;54.332;10.118;2022-08-19T12:41:13;20.70;99.90
8892;DHT22;4482;54.332;10.118;2022-08-19T12:43:41;20.70;99.90
8892;DHT22;4482;54.332;10.118;2022-08-19T12:46:08;20.80;99.90
8892;DHT22;4482;54.332;10.118;2022-08-19T12:48:35;21.00;99.90
8892;DHT22;4482;54.332;10.118;2022-08-19T12:51:08;21.10;99.90
8892;DHT22;4482;54.332;10.118;2022-08-19T12:53:35;21.20;99.90
8892;DHT22;4482;54.332;10.118;2022-08-19T12:56:03;21.20;99.90
8892;DHT22;4482;54.332;10.118;2022-08-19T12:58:30;21.30;99.90
8892;DHT22;4482;54.332;10.118;2022-08-19T13:01:05;21.20;99.90
8892;DHT22;4482;54.332;10.118;2022-08-19T13:03:32;21.30;99.90
8892;DHT22;4482;54.332;10.118;2022-08-19T13:05:59;21.40;99.90
8892;DHT22;4482;54.332;10.118;2022-08-19T13:08:27;21.30;99.90
8892;DHT22;4482;54.332;10.118;2022-08-19T13:10:54;21.40;99.90
8892;DHT22;4482;54.332;10.118;2022-08-19T13:13:21;21.40;99.90
8892;DHT22;4482;54.332;10.118;2022-08-19T13:15:48;21.50;99.90
8892;DHT22;4482;54.332;10.118;2022-08-19T13:18:15;21.50;99.90
8892;DHT22;4482;54.332;10.118;2022-08-19T13:20:42;21.60;99.90
8892;DHT22;4482;54.332;10.118;2022-08-19T13:23:09;21.70;99.90
8892;DHT22;4482;54.332;10.118;2022-08-19T13:25:38;21.90;99.90
8892;DHT22;4482;54.332;10.118;2022-08-19T13:28:05;22.00;99.90
8892;DHT22;4482;54.332;10.118;2022-08-19T13:30:32;22.00;99.90
8892;DHT22;4482;54.332;10.118;2022-08-19T13:33:17;22.10;99.90
8892;DHT22;4482;54.332;10.118;2022-08-19T13:35:47;22.10;99.90
8892;DHT22;4482;54.332;10.118;2022-08-19T13:38:15;22.20;99.90
8892;DHT22;4482;54.332;10.118;2022-08-19T13:40:44;22.20;99.90
8892;DHT22;4482;54.332;10.118;2022-08-19T13:43:11;22.30;99.90
8892;DHT22;4482;54.332;10.118;2022-08-19T13:45:39;22.30;99.90
8892;DHT22;4482;54.332;10.118;2022-08-19T13:48:07;22.30;99.90
8892;DHT22;4482;54.332;10.118;2022-08-19T13:50:39;22.30;99.90
8892;DHT22;4482;54.332;10.118;2022-08-19T13:53:07;22.30;99.90
8892;DHT22;4482;54.332;10.118;2022-08-19T13:55:36;22.10;99.90
8892;DHT22;4482;54.332;10.118;2022-08-19T13:58:05;22.10;99.90
8892;DHT22;4482;54.332;10.118;2022-08-19T14:00:34;22.00;99.90
8892;DHT22;4482;54.332;10.118;2022-08-19T14:03:01;22.00;99.90
8892;DHT22;4482;54.332;10.118;2022-08-19T14:05:30;21.90;99.90
8892;DHT22;4482;54.332;10.118;2022-08-19T14:07:58;21.70;99.90
8892;DHT22;4482;54.332;10.118;2022-08-19T14:10:26;21.40;99.90
8892;DHT22;4482;54.332;10.118;2022-08-19T14:12:54;21.40;99.90
8892;DHT22;4482;54.332;10.118;2022-08-19T14:15:25;21.30;99.90
8892;DHT22;4482;54.332;10.118;2022-08-19T14:17:52;21.20;99.90
8892;DHT22;4482;54.332;10.118;2022-08-19T14:20:20;21.20;99.90
8892;DHT22;4482;54.332;10.118;2022-08-19T14:22:47;21.30;99.90
8892;DHT22;4482;54.332;10.118;2022-08-19T14:25:16;21.40;99.90
8892;DHT22;4482;54.332;10.118;2022-08-19T14:27:43;21.40;99.90
8892;DHT22;4482;54.332;10.118;2022-08-19T14:30:13;21.40;99.90
8892;DHT22;4482;54.332;10.118;2022-08-19T14:32:42;21.40;99.90
8892;DHT22;4482;54.332;10.118;2022-08-19T14:35:10;21.40;99.90
8892;DHT22;4482;54.332;10.118;2022-08-19T14:37:38;21.30;99.90
8892;DHT22;4482;54.332;10.118;2022-08-19T14:40:07;21.30;99.90
8892;DHT22;4482;54.332;10.118;2022-08-19T14:42:34;21.40;99.90
8892;DHT22;4482;54.332;10.118;2022-08-19T14:45:01;21.50;99.90
8892;DHT22;4482;54.332;10.118;2022-08-19T14:47:30;21.80;99.90
8892;DHT22;4482;54.332;10.118;2022-08-19T14:49:59;22.00;99.90
8892;DHT22;4482;54.332;10.118;2022-08-19T14:52:26;22.20;99.90
8892;DHT22;4482;54.332;10.118;2022-08-19T14:54:53;22.30;99.90
8892;DHT22;4482;54.332;10.118;2022-08-19T14:57:19;22.40;99.90
8892;DHT22;4482;54.332;10.118;2022-08-19T14:59:46;22.40;99.90
8892;DHT22;4482;54.332;10.118;2022-08-19T15:02:13;22.50;99.90
8892;DHT22;4482;54.332;10.118;2022-08-19T15:04:40;22.50;99.90
8892;DHT22;4482;54.332;10.118;2022-08-19T15:07:08;22.40;99.90
8892;DHT22;4482;54.332;10.118;2022-08-19T15:09:35;22.30;99.90
8892;DHT22;4482;54.332;10.118;2022-08-19T15:12:02;22.30;99.90
8892;DHT22;4482;54.332;10.118;2022-08-19T15:14:30;22.20;99.90
8892;DHT22;4482;54.332;10.118;2022-08-19T15:17:00;22.20;99.90
8892;DHT22;4482;54.332;10.118;2022-08-19T15:19:28;22.20;99.90
8892;DHT22;4482;54.332;10.118;2022-08-19T15:21:55;22.10;99.90
8892;DHT22;4482;54.332;10.118;2022-08-19T15:24:23;21.90;99.90
8892;DHT22;4482;54.332;10.118;2022-08-19T15:26:51;21.70;99.90
8892;DHT22;4482;54.332;10.118;2022-08-19T15:29:18;21.80;99.90
8892;DHT22;4482;54.332;10.118;2022-08-19T15:31:45;21.90;99.90
8892;DHT22;4482;54.332;10.118;2022-08-19T15:34:11;21.90;99.90
8892;DHT22;4482;54.332;10.118;2022-08-19T15:36:38;21.90;99.90
8892;DHT22;4482;54.332;10.118;2022-08-19T15:39:05;22.00;99.90
8892;DHT22;4482;54.332;10.118;2022-08-19T15:41:36;22.10;99.90
8892;DHT22;4482;54.332;10.118;2022-08-19T15:44:07;22.20;99.90
8892;DHT22;4482;54.332;10.118;2022-08-19T15:46:36;22.30;99.90
8892;DHT22;4482;54.332;10.118;2022-08-19T15:49:04;22.30;99.90
8892;DHT22;4482;54.332;10.118;2022-08-19T15:51:32;22.30;99.90
8892;DHT22;4482;54.332;10.118;2022-08-19T15:54:01;22.20;99.90